Time;durP1;ratioP1;P1;durP2;ratioP2;P2;SDS_P1;SDS_P2;PMS_P1;PMS_P2;Temp;Humidity;BMP_temperature;BMP_pressure;BME280_temperature;BME280_humidity;BME280_pressure;Samples;Min_cycle;Max_cycle;Signal;HPM_P1;HPM_P2
2021/08/04 00:02:13;;;;;;;57.70;7.55;;;;;;;;;;6220108;28;20515;-81
2021/08/04 00:05:15;;;;;;;24.50;7.50;;;;;;;;;;6219304;28;20042;-81
2021/08/04 00:08:17;;;;;;;19.13;6.50;;;;;;;;;;6221007;28;20046;-81
2021/08/04 00:11:18;;;;;;;13.95;5.85;;;;;;;;;;6202970;28;20775;-81
2021/08/04 00:14:20;;;;;;;21.48;5.90;;;;;;;;;;6220137;28;20068;-81
2021/08/04 00:17:22;;;;;;;13.98;4.88;;;;;;;;;;6245253;28;20038;-81
2021/08/04 00:20:23;;;;;;;14.45;5.95;;;;;;;;;;6196419;28;20039;-81
2021/08/04 00:23:25;;;;;;;15.35;5.68;;;;;;;;;;6195840;28;20101;-81
2021/08/04 00:26:27;;;;;;;16.20;6.10;;;;;;;;;;6212079;28;20520;-81
2021/08/04 00:29:28;;;;;;;18.65;7.20;;;;;;;;;;6196188;28;20038;-81
2021/08/04 00:32:30;;;;;;;20.40;8.48;;;;;;;;;;6186802;28;20125;-81
2021/08/04 00:35:32;;;;;;;19.35;7.30;;;;;;;;;;6197031;28;20129;-81
2021/08/04 00:38:34;;;;;;;19.38;7.38;;;;;;;;;;6228964;28;20114;-81
2021/08/04 00:41:40;;;;;;;18.05;6.53;;;;;;;;;;6237008;28;20056;-81
2021/08/04 00:44:43;;;;;;;23.90;6.88;;;;;;;;;;6200152;28;20407;-81
2021/08/04 00:47:44;;;;;;;22.10;6.85;;;;;;;;;;6220458;28;20113;-81
2021/08/04 00:50:46;;;;;;;24.83;7.72;;;;;;;;;;6240514;28;20041;-81
2021/08/04 00:53:48;;;;;;;16.55;6.55;;;;;;;;;;6240174;28;20042;-81
2021/08/04 00:56:50;;;;;;;18.85;7.35;;;;;;;;;;6223822;28;20068;-81
2021/08/04 00:59:52;;;;;;;15.25;7.68;;;;;;;;;;6224825;28;20042;-81
2021/08/04 01:03:05;;;;;;;25.00;7.20;;;;;;;;;;6224140;28;20065;-82
2021/08/04 01:06:17;;;;;;;50.85;8.32;;;;;;;;;;6225038;28;20052;-81
2021/08/04 01:09:23;;;;;;;19.15;4.50;;;;;;;;;;6225491;28;20100;-81
2021/08/04 01:12:29;;;;;;;12.30;4.35;;;;;;;;;;6222607;28;20037;-81
2021/08/04 01:15:38;;;;;;;16.05;5.45;;;;;;;;;;6200657;28;20045;-82
2021/08/04 01:18:54;;;;;;;14.68;5.60;;;;;;;;;;6183072;28;20046;-82
2021/08/04 01:22:01;;;;;;;10.98;5.45;;;;;;;;;;6229318;28;20057;-82
2021/08/04 01:25:14;;;;;;;12.65;5.07;;;;;;;;;;6248580;28;20041;-81
2021/08/04 01:28:55;;;;;;;11.90;5.30;;;;;;;;;;6202940;28;20050;-82
2021/08/04 01:32:01;;;;;;;14.10;5.03;;;;;;;;;;6101701;29;20118;-81
2021/08/04 01:35:04;;;;;;;21.88;4.97;;;;;;;;;;6108749;28;20453;-82
2021/08/04 01:38:06;;;;;;;15.35;4.90;;;;;;;;;;6218813;28;20128;-81
2021/08/04 01:41:10;;;;;;;13.00;5.25;;;;;;;;;;6230413;28;20069;-82
2021/08/04 01:44:14;;;;;;;23.83;5.82;;;;;;;;;;6247654;28;20049;-81
2021/08/04 01:47:16;;;;;;;23.48;5.72;;;;;;;;;;6247967;28;20096;-82
2021/08/04 01:50:17;;;;;;;16.92;5.68;;;;;;;;;;6249426;28;20095;-82
2021/08/04 01:53:21;;;;;;;25.35;5.85;;;;;;;;;;6232239;28;20049;-81
2021/08/04 01:56:25;;;;;;;12.82;5.10;;;;;;;;;;6247114;28;20049;-80
2021/08/04 01:59:26;;;;;;;16.70;5.55;;;;;;;;;;6248387;28;20049;-81
2021/08/04 02:02:28;;;;;;;12.75;5.72;;;;;;;;;;6231696;28;20049;-81
2021/08/04 02:05:30;;;;;;;14.65;5.65;;;;;;;;;;6230808;28;20053;-81
2021/08/04 02:08:43;;;;;;;16.40;6.45;;;;;;;;;;6231142;28;20414;-81
2021/08/04 02:12:08;;;;;;;19.50;6.13;;;;;;;;;;6230709;28;20046;-81
2021/08/04 02:15:13;;;;;;;14.20;5.55;;;;;;;;;;6221481;28;20057;-82
2021/08/04 02:18:20;;;;;;;18.15;6.72;;;;;;;;;;6223492;28;20050;-82
2021/08/04 02:21:24;;;;;;;17.27;6.40;;;;;;;;;;6191385;28;20081;-81
2021/08/04 02:24:27;;;;;;;14.70;5.50;;;;;;;;;;6213383;28;20053;-81
2021/08/04 02:27:30;;;;;;;13.48;5.80;;;;;;;;;;6247934;28;20072;-82
2021/08/04 02:30:33;;;;;;;17.52;6.10;;;;;;;;;;6246804;28;20044;-81
2021/08/04 02:33:35;;;;;;;19.30;5.93;;;;;;;;;;6218434;28;20080;-81
2021/08/04 02:36:37;;;;;;;16.05;5.72;;;;;;;;;;6227676;28;20057;-80
2021/08/04 02:39:38;;;;;;;17.70;6.03;;;;;;;;;;6248748;28;20125;-81
2021/08/04 02:42:42;;;;;;;19.58;6.30;;;;;;;;;;6245880;28;20052;-82
2021/08/04 02:45:44;;;;;;;15.02;5.38;;;;;;;;;;6214943;28;20056;-81
2021/08/04 02:48:46;;;;;;;12.53;5.30;;;;;;;;;;6248270;28;20048;-81
2021/08/04 02:51:48;;;;;;;14.25;5.43;;;;;;;;;;6228895;28;20613;-81
2021/08/04 02:54:49;;;;;;;12.88;5.30;;;;;;;;;;6247053;28;20650;-81
2021/08/04 02:57:51;;;;;;;10.27;4.63;;;;;;;;;;6245193;28;20038;-81
2021/08/04 03:00:54;;;;;;;10.32;4.60;;;;;;;;;;6228864;28;20042;-81
2021/08/04 03:03:56;;;;;;;10.85;5.03;;;;;;;;;;6244896;28;20041;-81
2021/08/04 03:06:58;;;;;;;10.77;4.68;;;;;;;;;;6245198;28;20108;-81
2021/08/04 03:10:00;;;;;;;9.10;4.53;;;;;;;;;;6229314;28;20041;-82
2021/08/04 03:13:01;;;;;;;11.80;5.72;;;;;;;;;;6244774;28;20057;-81
2021/08/04 03:16:03;;;;;;;12.38;5.10;;;;;;;;;;6227939;28;20093;-81
2021/08/04 03:19:05;;;;;;;16.17;5.67;;;;;;;;;;6237816;28;20061;-81
2021/08/04 03:22:07;;;;;;;18.70;6.30;;;;;;;;;;6255091;28;20104;-81
2021/08/04 03:25:10;;;;;;;15.35;5.93;;;;;;;;;;6240608;28;20047;-81
2021/08/04 03:28:12;;;;;;;40.35;7.07;;;;;;;;;;6257431;28;20109;-81
2021/08/04 03:31:14;;;;;;;13.07;5.40;;;;;;;;;;6231358;28;20045;-81
2021/08/04 03:34:16;;;;;;;71.63;8.27;;;;;;;;;;6241649;28;20053;-81
2021/08/04 03:37:17;;;;;;;19.20;7.10;;;;;;;;;;6225074;28;20109;-81
2021/08/04 03:40:19;;;;;;;66.75;8.30;;;;;;;;;;6232706;28;20490;-81
2021/08/04 03:43:21;;;;;;;14.77;5.55;;;;;;;;;;6231175;28;20050;-81
2021/08/04 03:46:22;;;;;;;33.10;5.55;;;;;;;;;;6230691;28;20109;-81
2021/08/04 03:49:24;;;;;;;15.82;5.70;;;;;;;;;;6246446;28;20041;-81
2021/08/04 03:52:25;;;;;;;15.02;5.47;;;;;;;;;;6229425;28;20048;-81
2021/08/04 03:55:27;;;;;;;13.48;5.35;;;;;;;;;;6231512;28;20046;-81
2021/08/04 03:58:29;;;;;;;18.27;6.95;;;;;;;;;;6205290;28;20045;-81
2021/08/04 04:01:30;;;;;;;17.35;6.93;;;;;;;;;;6206612;28;20050;-81
2021/08/04 04:04:32;;;;;;;18.48;7.10;;;;;;;;;;6209966;28;20520;-81
2021/08/04 04:07:35;;;;;;;14.10;5.47;;;;;;;;;;6229955;28;20050;-81
2021/08/04 04:10:37;;;;;;;18.88;7.55;;;;;;;;;;6229277;28;20104;-82
2021/08/04 04:13:38;;;;;;;19.17;7.00;;;;;;;;;;6214465;28;20126;-81
2021/08/04 04:16:40;;;;;;;16.48;8.50;;;;;;;;;;6239351;28;20053;-81
2021/08/04 04:19:41;;;;;;;17.50;7.32;;;;;;;;;;6238400;28;20042;-81
2021/08/04 04:22:46;;;;;;;18.92;7.28;;;;;;;;;;6237850;28;20401;-81
2021/08/04 04:25:47;;;;;;;18.08;8.75;;;;;;;;;;6239783;28;20109;-81
2021/08/04 04:28:49;;;;;;;18.63;8.43;;;;;;;;;;6239287;28;20120;-81
2021/08/04 04:31:51;;;;;;;17.77;7.95;;;;;;;;;;6239225;28;20057;-81
2021/08/04 04:34:52;;;;;;;17.83;8.43;;;;;;;;;;6224045;28;20057;-81
2021/08/04 04:37:54;;;;;;;16.67;7.60;;;;;;;;;;6245380;28;20128;-81
2021/08/04 04:40:56;;;;;;;17.10;7.80;;;;;;;;;;6239428;28;20390;-81
2021/08/04 04:43:57;;;;;;;19.83;8.40;;;;;;;;;;6237326;28;20050;-81
2021/08/04 04:46:59;;;;;;;21.00;8.30;;;;;;;;;;6235788;28;20136;-82
2021/08/04 04:50:00;;;;;;;21.52;9.27;;;;;;;;;;6223599;28;20113;-81
2021/08/04 04:53:02;;;;;;;23.98;10.02;;;;;;;;;;6239667;28;20049;-81
2021/08/04 04:56:04;;;;;;;20.88;9.35;;;;;;;;;;6239410;28;20141;-81
2021/08/04 04:59:05;;;;;;;29.83;10.77;;;;;;;;;;6238812;28;20602;-81
2021/08/04 05:02:07;;;;;;;24.20;10.05;;;;;;;;;;6237654;28;20095;-81
2021/08/04 05:05:09;;;;;;;25.92;9.95;;;;;;;;;;6221303;28;20045;-81
2021/08/04 05:08:11;;;;;;;20.73;8.82;;;;;;;;;;6238331;28;20050;-81
2021/08/04 05:11:13;;;;;;;21.88;9.73;;;;;;;;;;6237316;28;20069;-81
2021/08/04 05:14:14;;;;;;;22.40;9.32;;;;;;;;;;6238228;28;20065;-81
2021/08/04 05:17:16;;;;;;;19.65;9.02;;;;;;;;;;6220919;28;20045;-81
2021/08/04 05:20:21;;;;;;;18.92;8.68;;;;;;;;;;6229448;28;20106;-81
2021/08/04 05:23:22;;;;;;;18.48;8.27;;;;;;;;;;6204869;28;20503;-81
2021/08/04 05:26:24;;;;;;;16.45;8.05;;;;;;;;;;6235583;28;20056;-81
2021/08/04 05:29:26;;;;;;;17.35;7.88;;;;;;;;;;6226469;28;20045;-81
2021/08/04 05:32:27;;;;;;;15.32;6.85;;;;;;;;;;6260619;28;20111;-81
2021/08/04 05:35:29;;;;;;;14.68;6.80;;;;;;;;;;6258648;28;20101;-81
2021/08/04 05:38:31;;;;;;;12.20;6.15;;;;;;;;;;6241223;28;20041;-81
2021/08/04 05:41:32;;;;;;;12.90;6.28;;;;;;;;;;6258428;28;20057;-81
2021/08/04 05:44:34;;;;;;;13.15;6.30;;;;;;;;;;6256419;28;20037;-81
2021/08/04 05:47:36;;;;;;;13.27;6.35;;;;;;;;;;6242283;28;20052;-81
2021/08/04 05:50:37;;;;;;;12.70;6.70;;;;;;;;;;6227864;28;20093;-82
2021/08/04 05:53:39;;;;;;;17.20;7.38;;;;;;;;;;6232122;28;20093;-80
2021/08/04 05:56:40;;;;;;;15.27;7.00;;;;;;;;;;6216594;28;20113;-80
2021/08/04 05:59:42;;;;;;;21.83;9.05;;;;;;;;;;6229968;28;20041;-80
2021/08/04 06:02:44;;;;;;;18.85;8.85;;;;;;;;;;6259164;28;20106;-81
2021/08/04 06:05:46;;;;;;;19.77;9.10;;;;;;;;;;6240080;28;20119;-80
2021/08/04 06:08:48;;;;;;;17.77;8.77;;;;;;;;;;6240769;28;20037;-81
2021/08/04 06:11:49;;;;;;;15.75;7.85;;;;;;;;;;6258788;28;20113;-81
2021/08/04 06:14:51;;;;;;;16.35;7.68;;;;;;;;;;6256404;28;20055;-81
2021/08/04 06:17:53;;;;;;;13.48;6.78;;;;;;;;;;6258108;28;20049;-81
2021/08/04 06:20:54;;;;;;;11.18;6.25;;;;;;;;;;6226561;28;20046;-81
2021/08/04 06:23:56;;;;;;;12.43;7.00;;;;;;;;;;6233173;28;20101;-82
2021/08/04 06:26:57;;;;;;;12.35;6.90;;;;;;;;;;6231991;28;20076;-83
2021/08/04 06:29:59;;;;;;;13.32;7.05;;;;;;;;;;6243073;28;20053;-83
2021/08/04 06:33:01;;;;;;;10.70;6.05;;;;;;;;;;6231743;28;20117;-83
2021/08/04 06:36:06;;;;;;;10.50;6.18;;;;;;;;;;6222653;28;20046;-80
2021/08/04 06:39:08;;;;;;;10.02;5.20;;;;;;;;;;6230157;28;20050;-80
2021/08/04 06:42:15;;;;;;;9.80;5.93;;;;;;;;;;6230889;28;20510;-80
2021/08/04 06:45:16;;;;;;;10.00;5.60;;;;;;;;;;6249172;28;20045;-79
2021/08/04 06:48:18;;;;;;;11.38;6.90;;;;;;;;;;6234995;28;20093;-78
2021/08/04 06:51:20;;;;;;;10.88;6.95;;;;;;;;;;6251622;28;20117;-79
2021/08/04 06:54:23;;;;;;;12.20;7.55;;;;;;;;;;6253845;28;20101;-78
2021/08/04 06:57:25;;;;;;;12.52;7.32;;;;;;;;;;6252782;28;20421;-79
2021/08/04 07:00:27;;;;;;;12.00;7.50;;;;;;;;;;6211394;28;20076;-79
2021/08/04 07:03:28;;;;;;;13.32;8.07;;;;;;;;;;6211899;28;20045;-79
2021/08/04 07:06:30;;;;;;;11.75;7.63;;;;;;;;;;6249670;28;20046;-79
2021/08/04 07:09:34;;;;;;;10.55;7.13;;;;;;;;;;6231253;28;20038;-80
2021/08/04 07:12:36;;;;;;;10.65;6.72;;;;;;;;;;6236250;28;20042;-79
2021/08/04 07:15:37;;;;;;;10.13;6.75;;;;;;;;;;6233593;28;20046;-81
2021/08/04 07:18:39;;;;;;;9.35;6.13;;;;;;;;;;6249560;28;20052;-80
2021/08/04 07:21:41;;;;;;;9.35;6.40;;;;;;;;;;6253376;28;20041;-81
2021/08/04 07:24:42;;;;;;;9.05;6.72;;;;;;;;;;6255626;28;20038;-81
2021/08/04 07:27:44;;;;;;;8.25;6.07;;;;;;;;;;6226214;28;20109;-80
2021/08/04 07:30:46;;;;;;;7.97;6.45;;;;;;;;;;6220756;28;20070;-81
2021/08/04 07:33:47;;;;;;;9.20;6.85;;;;;;;;;;6233568;28;20065;-82
2021/08/04 07:36:49;;;;;;;10.07;7.07;;;;;;;;;;6230314;28;20096;-82
2021/08/04 07:39:51;;;;;;;10.50;7.30;;;;;;;;;;6230237;28;20093;-82
2021/08/04 07:42:53;;;;;;;8.88;6.95;;;;;;;;;;6255085;28;20044;-82
2021/08/04 07:45:54;;;;;;;9.43;7.43;;;;;;;;;;6244677;28;20065;-82
2021/08/04 07:48:56;;;;;;;8.98;6.88;;;;;;;;;;6226702;28;20053;-82
2021/08/04 07:51:57;;;;;;;7.97;6.90;;;;;;;;;;6228609;28;20272;-82
2021/08/04 07:54:59;;;;;;;9.70;7.50;;;;;;;;;;6230603;28;20646;-81
2021/08/04 07:58:01;;;;;;;10.30;7.72;;;;;;;;;;6265075;28;20049;-82
2021/08/04 08:01:02;;;;;;;8.13;6.60;;;;;;;;;;6228981;28;20118;-81
2021/08/04 08:04:04;;;;;;;9.18;7.15;;;;;;;;;;6229852;28;20548;-80
2021/08/04 08:07:06;;;;;;;10.13;7.43;;;;;;;;;;6222741;28;20056;-81
2021/08/04 08:10:10;;;;;;;9.10;7.22;;;;;;;;;;6229464;28;20143;-83
2021/08/04 08:13:12;;;;;;;9.35;7.57;;;;;;;;;;6228398;28;20571;-82
2021/08/04 08:16:14;;;;;;;9.77;7.65;;;;;;;;;;6230385;28;20048;-81
2021/08/04 08:19:16;;;;;;;10.25;8.13;;;;;;;;;;6230003;28;20050;-81
2021/08/04 08:22:18;;;;;;;11.45;8.00;;;;;;;;;;6229307;28;20088;-81
2021/08/04 08:25:20;;;;;;;11.82;8.68;;;;;;;;;;6245898;28;20034;-81
2021/08/04 08:28:22;;;;;;;10.30;7.68;;;;;;;;;;6228072;28;20105;-81
2021/08/04 08:31:23;;;;;;;10.95;8.18;;;;;;;;;;6213710;28;20041;-80
2021/08/04 08:34:25;;;;;;;10.10;7.53;;;;;;;;;;6229186;28;20053;-80
2021/08/04 08:37:27;;;;;;;10.85;7.80;;;;;;;;;;6221212;28;20104;-80
2021/08/04 08:40:29;;;;;;;9.95;7.80;;;;;;;;;;6254619;28;20110;-81
2021/08/04 08:43:30;;;;;;;10.70;7.78;;;;;;;;;;6251994;28;20044;-81
2021/08/04 08:46:32;;;;;;;11.13;7.95;;;;;;;;;;6252690;28;20041;-80
2021/08/04 08:49:35;;;;;;;10.38;7.70;;;;;;;;;;6249160;28;20041;-80
2021/08/04 08:52:36;;;;;;;12.40;7.50;;;;;;;;;;6252592;28;20083;-81
2021/08/04 08:55:39;;;;;;;9.45;7.60;;;;;;;;;;6235934;28;20041;-82
2021/08/04 08:58:41;;;;;;;;;;;;;;;;;;6254392;28;20044;-82
2021/08/04 09:01:43;;;;;;;9.75;7.20;;;;;;;;;;6214914;28;20289;-82
2021/08/04 09:05:16;;;;;;;9.20;7.07;;;;;;;;;;6221789;28;20045;-82
2021/08/04 09:08:28;;;;;;;9.07;7.07;;;;;;;;;;6226116;28;20053;-81
2021/08/04 09:11:30;;;;;;;9.55;7.80;;;;;;;;;;6237254;28;20114;-82
2021/08/04 09:14:36;;;;;;;11.38;7.03;;;;;;;;;;6204728;28;20419;-83
2021/08/04 09:17:39;;;;;;;7.95;6.72;;;;;;;;;;6200872;28;20066;-82
2021/08/04 09:20:41;;;;;;;7.38;6.43;;;;;;;;;;6217266;28;20053;-82
2021/08/04 09:23:49;;;;;;;6.75;5.78;;;;;;;;;;6232669;28;20576;-82
2021/08/04 09:26:50;;;;;;;6.72;5.78;;;;;;;;;;6216204;28;20054;-83
2021/08/04 09:29:59;;;;;;;7.68;5.95;;;;;;;;;;6248733;28;20041;-83
2021/08/04 09:33:16;;;;;;;6.78;5.70;;;;;;;;;;6239553;28;20109;-82
2021/08/04 09:36:28;;;;;;;6.88;5.90;;;;;;;;;;6257366;28;20041;-83
2021/08/04 09:39:31;;;;;;;6.33;5.70;;;;;;;;;;6256899;28;20057;-83
2021/08/04 09:42:42;;;;;;;5.93;5.30;;;;;;;;;;6238982;28;20046;-84
2021/08/04 09:45:49;;;;;;;6.65;5.60;;;;;;;;;;6255456;28;20041;-84
2021/08/04 09:48:52;;;;;;;6.60;5.45;;;;;;;;;;6238176;28;20113;-84
2021/08/04 09:52:12;;;;;;;6.13;5.53;;;;;;;;;;6218862;28;20042;-83
2021/08/04 09:55:17;;;;;;;6.20;5.57;;;;;;;;;;6214204;28;20049;-83
2021/08/04 09:58:24;;;;;;;5.30;4.80;;;;;;;;;;6199340;28;20042;-84
2021/08/04 10:01:46;;;;;;;5.68;5.03;;;;;;;;;;6238471;28;20033;-84
2021/08/04 10:05:10;;;;;;;6.47;5.65;;;;;;;;;;6236307;28;20056;-84
2021/08/04 10:08:13;;;;;;;5.30;4.80;;;;;;;;;;6237842;28;20038;-83
2021/08/04 10:11:16;;;;;;;6.40;5.57;;;;;;;;;;6210340;28;20129;-84
2021/08/04 10:14:19;;;;;;;10.80;5.60;;;;;;;;;;6230691;28;20046;-84
2021/08/04 10:17:22;;;;;;;4.72;4.32;;;;;;;;;;6231017;28;20045;-84
2021/08/04 10:20:24;;;;;;;5.47;4.97;;;;;;;;;;6218762;28;20110;-84
2021/08/04 10:23:26;;;;;;;5.28;4.70;;;;;;;;;;6189495;28;20068;-84
2021/08/04 10:26:28;;;;;;;4.68;4.28;;;;;;;;;;6231610;28;20172;-83
2021/08/04 10:29:30;;;;;;;5.22;4.72;;;;;;;;;;6241237;28;20446;-83
2021/08/04 10:32:32;;;;;;;6.95;4.32;;;;;;;;;;6255257;28;20037;-82
2021/08/04 10:35:36;;;;;;;4.53;4.00;;;;;;;;;;6253231;28;20121;-82
2021/08/04 10:38:58;;;;;;;5.13;4.03;;;;;;;;;;6255149;28;20238;-82
2021/08/04 10:42:05;;;;;;;4.32;3.92;;;;;;;;;;6238537;28;20053;-82
2021/08/04 10:45:26;;;;;;;4.00;3.70;;;;;;;;;;6250407;28;20101;-82
2021/08/04 10:48:28;;;;;;;4.00;3.70;;;;;;;;;;6256199;28;20061;-81
2021/08/04 10:51:43;;;;;;;4.07;3.77;;;;;;;;;;6203515;28;20565;-82
2021/08/04 10:55:08;;;;;;;3.95;3.53;;;;;;;;;;6213750;28;20052;-81
2021/08/04 10:58:10;;;;;;;3.90;3.50;;;;;;;;;;6216484;28;20037;-81
2021/08/04 11:01:24;;;;;;;4.97;3.75;;;;;;;;;;6254450;28;20037;-83
2021/08/04 11:04:26;;;;;;;4.20;3.80;;;;;;;;;;6251961;28;20050;-81
2021/08/04 11:07:27;;;;;;;4.25;3.88;;;;;;;;;;6230013;28;20180;-82
2021/08/04 11:10:37;;;;;;;4.60;3.97;;;;;;;;;;6252296;28;20056;-81
2021/08/04 11:13:44;;;;;;;4.50;4.10;;;;;;;;;;6246421;28;20041;-84
2021/08/04 11:16:59;;;;;;;4.40;4.00;;;;;;;;;;6251593;28;20096;-83
2021/08/04 11:20:07;;;;;;;12.82;4.13;;;;;;;;;;6233717;28;20045;-81
2021/08/04 11:23:09;;;;;;;23.10;5.85;;;;;;;;;;6250422;28;20132;-81
2021/08/04 11:26:37;;;;;;;6.90;3.67;;;;;;;;;;6244736;28;20037;-83
2021/08/04 11:29:45;;;;;;;4.63;3.50;;;;;;;;;;6249091;28;20125;-81
2021/08/04 11:32:47;;;;;;;4.82;3.78;;;;;;;;;;6247767;28;20037;-82
2021/08/04 11:36:03;;;;;;;3.80;3.50;;;;;;;;;;6194780;28;20056;-81
2021/08/04 11:39:08;;;;;;;3.80;3.40;;;;;;;;;;6219961;28;20156;-82
2021/08/04 11:42:14;;;;;;;3.17;2.85;;;;;;;;;;6221732;28;20052;-81
2021/08/04 11:45:15;;;;;;;3.47;3.17;;;;;;;;;;6241525;28;20037;-82
2021/08/04 11:48:17;;;;;;;3.30;3.00;;;;;;;;;;6250144;28;20051;-83
2021/08/04 11:51:45;;;;;;;3.70;3.40;;;;;;;;;;6249861;28;20054;-83
2021/08/04 11:55:03;;;;;;;3.45;3.15;;;;;;;;;;6233528;28;20048;-82
2021/08/04 11:58:04;;;;;;;3.65;3.35;;;;;;;;;;6224468;28;20110;-82
2021/08/04 12:01:19;;;;;;;3.43;3.13;;;;;;;;;;6220951;28;20050;-81
2021/08/04 12:04:23;;;;;;;3.83;3.28;;;;;;;;;;6200460;28;20041;-78
2021/08/04 12:07:27;;;;;;;8.50;3.47;;;;;;;;;;6217758;28;20042;-79
2021/08/04 12:10:29;;;;;;;3.60;3.30;;;;;;;;;;6248018;28;20179;-82
2021/08/04 12:13:30;;;;;;;3.97;3.67;;;;;;;;;;6222528;28;20471;-82
2021/08/04 12:16:41;;;;;;;4.00;3.70;;;;;;;;;;6221921;28;20049;-81
2021/08/04 12:19:43;;;;;;;3.47;3.20;;;;;;;;;;6204639;28;20041;-82
2021/08/04 12:22:54;;;;;;;;;;;;;;;;;;6207154;28;20034;-82
2021/08/04 12:25:59;;;;;;;3.90;3.60;;;;;;;;;;6202363;28;19921;-82
2021/08/04 12:29:24;;;;;;;3.50;3.20;;;;;;;;;;6221903;28;20614;-83
2021/08/04 12:32:29;;;;;;;4.20;3.90;;;;;;;;;;6228826;28;20124;-82
2021/08/04 12:35:40;;;;;;;3.78;3.47;;;;;;;;;;6246707;28;20100;-82
2021/08/04 12:39:03;;;;;;;9.60;8.32;;;;;;;;;;6251922;28;20038;-83
2021/08/04 12:42:05;;;;;;;6.20;5.60;;;;;;;;;;6252957;28;20578;-83
2021/08/04 12:45:22;;;;;;;25.43;22.83;;;;;;;;;;6233854;28;20045;-83
2021/08/04 12:48:38;;;;;;;3.53;3.22;;;;;;;;;;6230327;28;20451;-83
2021/08/04 12:51:39;;;;;;;8.70;7.45;;;;;;;;;;6230411;28;20038;-82
2021/08/04 12:54:41;;;;;;;3.30;3.00;;;;;;;;;;6232637;28;20108;-81
2021/08/04 12:57:44;;;;;;;3.58;3.28;;;;;;;;;;6214940;28;20527;-81
2021/08/04 13:00:46;;;;;;;3.10;2.90;;;;;;;;;;6229577;28;20050;-82
2021/08/04 13:03:50;;;;;;;3.20;3.00;;;;;;;;;;6228757;28;20042;-82
2021/08/04 13:06:53;;;;;;;2.97;2.78;;;;;;;;;;6231109;28;20058;-81
2021/08/04 13:09:55;;;;;;;2.60;2.40;;;;;;;;;;6231658;28;20034;-81
2021/08/04 13:12:56;;;;;;;3.50;2.70;;;;;;;;;;6230874;28;20069;-81
2021/08/04 13:15:58;;;;;;;3.67;3.38;;;;;;;;;;6229428;28;20092;-79
2021/08/04 13:19:01;;;;;;;3.07;2.87;;;;;;;;;;6229393;28;20242;-80
2021/08/04 13:22:06;;;;;;;3.45;2.97;;;;;;;;;;6229703;28;20485;-82
2021/08/04 13:25:09;;;;;;;3.63;2.88;;;;;;;;;;6228011;28;20046;-80
2021/08/04 13:28:35;;;;;;;3.30;3.00;;;;;;;;;;6222541;28;20046;-80
2021/08/04 13:31:38;;;;;;;3.55;3.28;;;;;;;;;;6241997;28;20045;-80
2021/08/04 13:34:40;;;;;;;3.67;2.92;;;;;;;;;;6226157;28;20053;-82
2021/08/04 13:37:42;;;;;;;4.22;3.83;;;;;;;;;;6231278;28;20073;-80
2021/08/04 13:40:45;;;;;;;3.70;3.40;;;;;;;;;;6248703;28;20045;-80
2021/08/04 13:43:46;;;;;;;4.15;3.75;;;;;;;;;;6237214;28;20046;-80
2021/08/04 13:46:48;;;;;;;4.00;3.60;;;;;;;;;;6254586;28;20105;-81
2021/08/04 13:49:49;;;;;;;4.20;3.63;;;;;;;;;;6229777;28;20049;-79
2021/08/04 13:52:54;;;;;;;3.53;3.22;;;;;;;;;;6246912;28;20451;-82
2021/08/04 13:56:00;;;;;;;3.65;3.20;;;;;;;;;;6246285;28;20510;-79
2021/08/04 13:59:02;;;;;;;3.40;3.20;;;;;;;;;;6238827;28;20053;-77
2021/08/04 14:02:03;;;;;;;4.47;3.50;;;;;;;;;;6235726;28;20443;-77
2021/08/04 14:05:08;;;;;;;3.25;2.70;;;;;;;;;;6219549;28;20813;-77
2021/08/04 14:08:13;;;;;;;3.03;2.83;;;;;;;;;;6219912;28;20089;-77
2021/08/04 14:11:15;;;;;;;2.80;2.60;;;;;;;;;;6237748;28;20515;-77
2021/08/04 14:14:16;;;;;;;2.88;2.67;;;;;;;;;;6234866;28;20257;-78
2021/08/04 14:17:19;;;;;;;2.83;2.63;;;;;;;;;;6235643;28;20494;-76
2021/08/04 14:20:21;;;;;;;2.78;2.58;;;;;;;;;;6232695;28;20461;-79
2021/08/04 14:23:23;;;;;;;2.80;2.55;;;;;;;;;;6236276;28;20045;-78
2021/08/04 14:26:24;;;;;;;3.28;2.97;;;;;;;;;;6232611;28;20037;-77
2021/08/04 14:29:26;;;;;;;3.25;2.95;;;;;;;;;;6213134;28;20042;-78
2021/08/04 14:32:27;;;;;;;3.03;2.77;;;;;;;;;;6229700;28;20411;-78
2021/08/04 14:35:29;;;;;;;2.80;2.60;;;;;;;;;;6218082;28;20448;-79
2021/08/04 14:38:30;;;;;;;2.80;2.50;;;;;;;;;;6236814;28;20418;-79
2021/08/04 14:41:32;;;;;;;3.17;2.70;;;;;;;;;;6219959;28;20048;-79
2021/08/04 14:44:34;;;;;;;3.05;2.80;;;;;;;;;;6236274;28;20045;-77
2021/08/04 14:47:35;;;;;;;3.05;2.85;;;;;;;;;;6229861;28;20049;-81
2021/08/04 14:50:38;;;;;;;3.88;3.13;;;;;;;;;;6236651;28;20051;-78
2021/08/04 14:53:40;;;;;;;3.83;3.20;;;;;;;;;;6228666;28;20418;-80
2021/08/04 14:56:42;;;;;;;3.40;3.10;;;;;;;;;;6239879;28;20126;-79
2021/08/04 14:59:43;;;;;;;2.85;2.65;;;;;;;;;;6238710;28;20051;-79
2021/08/04 15:02:45;;;;;;;3.30;3.00;;;;;;;;;;6220515;28;20052;-77
2021/08/04 15:05:47;;;;;;;4.00;3.42;;;;;;;;;;6236715;28;20045;-79
2021/08/04 15:08:48;;;;;;;3.55;3.25;;;;;;;;;;6237259;28;20132;-79
2021/08/04 15:11:50;;;;;;;3.80;3.50;;;;;;;;;;6233998;28;20144;-76
2021/08/04 15:14:52;;;;;;;3.85;3.55;;;;;;;;;;6212407;28;20041;-79
2021/08/04 15:17:54;;;;;;;;;;;;;;;;;;6204141;28;20057;-76
2021/08/04 15:20:56;;;;;;;4.53;3.75;;;;;;;;;;6220488;28;20305;-78
2021/08/04 15:23:58;;;;;;;4.22;3.83;;;;;;;;;;6229859;28;20044;-79
2021/08/04 15:27:02;;;;;;;4.95;4.53;;;;;;;;;;6241724;28;20140;-79
2021/08/04 15:30:04;;;;;;;4.72;4.25;;;;;;;;;;6216381;28;20858;-83
2021/08/04 15:33:06;;;;;;;4.28;3.97;;;;;;;;;;6245632;28;20053;-79
2021/08/04 15:36:09;;;;;;;5.40;4.65;;;;;;;;;;6247178;28;20101;-80
2021/08/04 15:39:11;;;;;;;4.57;4.15;;;;;;;;;;6248822;28;20049;-79
2021/08/04 15:42:12;;;;;;;5.15;4.60;;;;;;;;;;6247366;28;20088;-81
2021/08/04 15:45:14;;;;;;;5.90;5.20;;;;;;;;;;6213278;28;20132;-79
2021/08/04 15:48:16;;;;;;;6.57;5.25;;;;;;;;;;6247505;28;20065;-79
2021/08/04 15:51:18;;;;;;;6.25;5.65;;;;;;;;;;6223700;28;20060;-81
2021/08/04 15:54:20;;;;;;;;;;;;;;;;;;6189055;28;20045;-82
2021/08/04 15:57:21;;;;;;;5.93;5.32;;;;;;;;;;6244213;28;19927;-80
2021/08/04 16:00:23;;;;;;;6.28;5.63;;;;;;;;;;6228642;28;20044;-80
2021/08/04 16:03:25;;;;;;;6.50;5.80;;;;;;;;;;6228392;28;20049;-80
2021/08/04 16:06:27;;;;;;;6.40;5.80;;;;;;;;;;6196806;28;20050;-81
2021/08/04 16:09:28;;;;;;;6.70;5.93;;;;;;;;;;6235120;28;20043;-80
2021/08/04 16:12:30;;;;;;;5.97;5.47;;;;;;;;;;6231844;28;20467;-80
2021/08/04 16:15:32;;;;;;;6.32;5.72;;;;;;;;;;6228823;28;20105;-80
2021/08/04 16:18:35;;;;;;;5.85;5.35;;;;;;;;;;6229731;28;20091;-80
2021/08/04 16:21:37;;;;;;;6.70;6.10;;;;;;;;;;6228930;28;20041;-80
2021/08/04 16:24:38;;;;;;;6.80;6.10;;;;;;;;;;6229247;28;20080;-79
2021/08/04 16:27:43;;;;;;;7.07;5.72;;;;;;;;;;6211030;28;20456;-80
2021/08/04 16:30:46;;;;;;;7.10;6.40;;;;;;;;;;6221045;28;20038;-80
2021/08/04 16:33:48;;;;;;;6.55;5.95;;;;;;;;;;6235101;28;20124;-80
2021/08/04 16:36:50;;;;;;;6.60;5.72;;;;;;;;;;6208763;28;20133;-80
2021/08/04 16:39:52;;;;;;;6.47;5.88;;;;;;;;;;6227491;28;20095;-80
2021/08/04 16:42:54;;;;;;;6.88;6.28;;;;;;;;;;6209504;28;20093;-81
2021/08/04 16:45:56;;;;;;;6.53;6.00;;;;;;;;;;6234397;28;20056;-81
2021/08/04 16:48:58;;;;;;;7.83;6.13;;;;;;;;;;6225946;28;20042;-80
2021/08/04 16:52:00;;;;;;;7.75;6.72;;;;;;;;;;6248338;28;20065;-82
2021/08/04 16:55:03;;;;;;;7.47;6.47;;;;;;;;;;6261229;28;20088;-81
2021/08/04 16:58:07;;;;;;;7.75;6.95;;;;;;;;;;6264110;28;20065;-81
2021/08/04 17:01:09;;;;;;;7.90;7.10;;;;;;;;;;6234961;28;20057;-80
2021/08/04 17:04:12;;;;;;;8.97;7.33;;;;;;;;;;6230060;28;20049;-81
2021/08/04 17:07:14;;;;;;;9.45;7.28;;;;;;;;;;6232959;28;20258;-81
2021/08/04 17:10:16;;;;;;;9.82;8.52;;;;;;;;;;6254116;28;20076;-82
2021/08/04 17:13:17;;;;;;;9.02;8.13;;;;;;;;;;6219785;28;20045;-81
2021/08/04 17:16:19;;;;;;;9.73;7.95;;;;;;;;;;6208889;28;20119;-82
2021/08/04 17:19:21;;;;;;;8.47;7.43;;;;;;;;;;6225390;28;20049;-81
2021/08/04 17:22:22;;;;;;;8.13;7.30;;;;;;;;;;6239292;28;20050;-81
2021/08/04 17:25:25;;;;;;;7.43;6.60;;;;;;;;;;6228497;28;20220;-81
2021/08/04 17:28:26;;;;;;;6.20;5.60;;;;;;;;;;6238736;28;20113;-81
2021/08/04 17:31:28;;;;;;;7.00;5.53;;;;;;;;;;6233110;28;20129;-82
2021/08/04 17:34:30;;;;;;;5.97;5.07;;;;;;;;;;6231799;28;20042;-81
2021/08/04 17:37:31;;;;;;;5.40;4.85;;;;;;;;;;6229582;28;20096;-81
2021/08/04 17:40:33;;;;;;;5.32;4.75;;;;;;;;;;6220373;28;20096;-81
2021/08/04 17:43:35;;;;;;;5.72;5.07;;;;;;;;;;6256803;28;20049;-81
2021/08/04 17:46:36;;;;;;;5.78;4.65;;;;;;;;;;6252224;28;20140;-82
2021/08/04 17:49:38;;;;;;;6.00;4.90;;;;;;;;;;6255679;28;20083;-81
2021/08/04 17:52:41;;;;;;;5.55;4.70;;;;;;;;;;6240939;28;20133;-81
2021/08/04 17:55:46;;;;;;;5.30;4.80;;;;;;;;;;6254710;28;20045;-81
2021/08/04 17:58:48;;;;;;;5.13;4.57;;;;;;;;;;6239145;28;20056;-81
2021/08/04 18:01:53;;;;;;;5.30;4.78;;;;;;;;;;6257156;28;20455;-81
2021/08/04 18:04:58;;;;;;;6.15;5.40;;;;;;;;;;6255848;28;20042;-81
2021/08/04 18:08:03;;;;;;;6.47;5.50;;;;;;;;;;6259070;28;20108;-81
2021/08/04 18:11:05;;;;;;;5.95;5.35;;;;;;;;;;6256796;28;20457;-81
2021/08/04 18:14:08;;;;;;;5.82;5.22;;;;;;;;;;6211303;28;20053;-81
2021/08/04 18:17:10;;;;;;;6.38;5.65;;;;;;;;;;6258418;28;20044;-81